N11EW DTTA-LFKC
Flight info
| Callsign | N11EW |
|---|---|
| Flight time | 1h 1m |
| Altitude | 32000 |
| Route | TOBIB2A TOBIB UA725 TANIT UM733 OSMAR DCT PIRIX DCT GIGGI DCT CORSI DCT AJO A9 LIBLO |
| Aircraft | B738/M-SCDE2E3FGHIJ4J5J7M1M3P2RWXYZ/LB1D1 |
Departure
| Time | 2026-04-29 17:20 |
|---|---|
| Airport | Tunis Carthage International Airport (DTTA) |
Arrival
| Time | 2026-04-29 18:22 |
|---|---|
| Airport | Calvi Sainte Catherine Airport (LFKC) |
| Time | Latitude | Longitude | Altitude | Speed | Heading |
|---|---|---|---|---|---|
| 2026-04-29 16:33 | 36.84048 | 10.22867 | 29 ft | 0 kts | 282° |
| 2026-04-29 17:14 | 36.84048 | 10.22866 | 29 ft | 1 kts | 282° |
| 2026-04-29 17:14 | 36.84053 | 10.22835 | 29 ft | 8 kts | 282° |
| 2026-04-29 17:14 | 36.84068 | 10.22751 | 29 ft | 11 kts | 282° |
| 2026-04-29 17:15 | 36.84083 | 10.22661 | 30 ft | 10 kts | 282° |
| 2026-04-29 17:15 | 36.84099 | 10.22574 | 30 ft | 10 kts | 282° |
| 2026-04-29 17:15 | 36.84119 | 10.22481 | 30 ft | 12 kts | 299° |
| 2026-04-29 17:15 | 36.84195 | 10.22452 | 30 ft | 14 kts | 9° |
| 2026-04-29 17:16 | 36.84318 | 10.22484 | 29 ft | 22 kts | 12° |
| 2026-04-29 17:16 | 36.84486 | 10.22530 | 28 ft | 26 kts | 12° |
| 2026-04-29 17:16 | 36.84660 | 10.22577 | 28 ft | 25 kts | 12° |
| 2026-04-29 17:16 | 36.84806 | 10.22617 | 31 ft | 17 kts | 12° |
| 2026-04-29 17:17 | 36.84896 | 10.22626 | 32 ft | 12 kts | 342° |
| 2026-04-29 17:17 | 36.84945 | 10.22550 | 29 ft | 12 kts | 291° |
| 2026-04-29 17:17 | 36.84982 | 10.22436 | 30 ft | 16 kts | 292° |
| 2026-04-29 17:17 | 36.85024 | 10.22310 | 30 ft | 15 kts | 292° |
| 2026-04-29 17:18 | 36.85065 | 10.22188 | 29 ft | 15 kts | 292° |
| 2026-04-29 17:18 | 36.85103 | 10.22071 | 28 ft | 14 kts | 292° |
| 2026-04-29 17:18 | 36.85140 | 10.21960 | 29 ft | 14 kts | 292° |
| 2026-04-29 17:18 | 36.85176 | 10.21853 | 29 ft | 13 kts | 292° |
| 2026-04-29 17:19 | 36.85214 | 10.21753 | 29 ft | 13 kts | 303° |
| 2026-04-29 17:19 | 36.85290 | 10.21714 | 29 ft | 12 kts | 13° |
| 2026-04-29 17:19 | 36.85369 | 10.21752 | 28 ft | 12 kts | 21° |
| 2026-04-29 17:19 | 36.85410 | 10.21815 | 31 ft | 9 kts | 101° |
| 2026-04-29 17:20 | 36.85369 | 10.21942 | 30 ft | 37 kts | 112° |
| 2026-04-29 17:20 | 36.85172 | 10.22535 | 35 ft | 108 kts | 112° |
| 2026-04-29 17:20 | 36.84812 | 10.23614 | 169 ft | 148 kts | 112° |
| 2026-04-29 17:20 | 36.84419 | 10.24783 | 881 ft | 148 kts | 114° |
| 2026-04-29 17:21 | 36.84039 | 10.25947 | 1682 ft | 144 kts | 116° |
| 2026-04-29 17:21 | 36.83653 | 10.27129 | 2326 ft | 153 kts | 117° |
| 2026-04-29 17:21 | 36.83156 | 10.28369 | 2811 ft | 166 kts | 135° |
| 2026-04-29 17:21 | 36.82147 | 10.29076 | 3327 ft | 174 kts | 170° |
| 2026-04-29 17:22 | 36.80884 | 10.28907 | 3656 ft | 198 kts | 205° |
| 2026-04-29 17:22 | 36.79884 | 10.27644 | 3999 ft | 218 kts | 244° |
| 2026-04-29 17:22 | 36.79676 | 10.25733 | 4569 ft | 230 kts | 281° |
| 2026-04-29 17:22 | 36.80510 | 10.24070 | 5355 ft | 233 kts | 324° |
| 2026-04-29 17:23 | 36.82053 | 10.23474 | 6067 ft | 241 kts | 1° |
| 2026-04-29 17:23 | 36.83686 | 10.23973 | 6851 ft | 243 kts | 15° |
| 2026-04-29 17:23 | 36.85350 | 10.24447 | 7514 ft | 249 kts | 3° |
| 2026-04-29 17:23 | 36.87118 | 10.24359 | 7930 ft | 264 kts | 343° |
| 2026-04-29 17:24 | 36.88889 | 10.23540 | 8427 ft | 276 kts | 334° |
| 2026-04-29 17:24 | 36.90660 | 10.22734 | 9416 ft | 273 kts | 338° |
| 2026-04-29 17:24 | 36.92465 | 10.21908 | 10076 ft | 284 kts | 335° |
| 2026-04-29 17:24 | 36.94385 | 10.20958 | 10306 ft | 310 kts | 335° |
| 2026-04-29 17:25 | 36.96460 | 10.19910 | 10585 ft | 331 kts | 335° |
| 2026-04-29 17:25 | 36.98672 | 10.18896 | 11068 ft | 345 kts | 338° |
| 2026-04-29 17:25 | 37.00983 | 10.17931 | 11638 ft | 355 kts | 339° |
| 2026-04-29 17:25 | 37.03382 | 10.17045 | 12207 ft | 364 kts | 342° |
| 2026-04-29 17:26 | 37.05862 | 10.16275 | 12915 ft | 369 kts | 343° |
| 2026-04-29 17:26 | 37.08378 | 10.15539 | 13695 ft | 373 kts | 343° |
| 2026-04-29 17:26 | 37.10916 | 10.14801 | 14417 ft | 376 kts | 343° |
| 2026-04-29 17:26 | 37.13440 | 10.14057 | 15145 ft | 379 kts | 343° |
| 2026-04-29 17:27 | 37.16017 | 10.13287 | 15874 ft | 383 kts | 343° |
| 2026-04-29 17:27 | 37.18616 | 10.12501 | 16598 ft | 387 kts | 343° |
| 2026-04-29 17:27 | 37.21246 | 10.11701 | 17306 ft | 390 kts | 343° |
| 2026-04-29 17:27 | 37.23899 | 10.10892 | 18003 ft | 394 kts | 343° |
| 2026-04-29 17:28 | 37.26579 | 10.10072 | 18623 ft | 398 kts | 343° |
| 2026-04-29 17:28 | 37.29281 | 10.09245 | 19252 ft | 402 kts | 342° |
| 2026-04-29 17:28 | 37.32012 | 10.08409 | 19824 ft | 406 kts | 342° |
| 2026-04-29 17:28 | 37.34775 | 10.07563 | 20401 ft | 410 kts | 342° |
| 2026-04-29 17:29 | 37.37558 | 10.06710 | 20981 ft | 413 kts | 342° |
| 2026-04-29 17:29 | 37.40360 | 10.05850 | 21549 ft | 417 kts | 342° |
| 2026-04-29 17:29 | 37.43191 | 10.04970 | 22082 ft | 420 kts | 342° |
| 2026-04-29 17:29 | 37.45073 | 10.04379 | 22430 ft | 423 kts | 342° |
| 2026-04-29 17:30 | 37.48916 | 10.03166 | 23120 ft | 428 kts | 342° |
| 2026-04-29 17:30 | 37.51814 | 10.02251 | 23618 ft | 431 kts | 342° |
| 2026-04-29 17:30 | 37.54737 | 10.01328 | 24039 ft | 435 kts | 342° |
| 2026-04-29 17:30 | 37.57640 | 10.00412 | 24433 ft | 438 kts | 342° |
| 2026-04-29 17:31 | 37.60610 | 9.99475 | 24842 ft | 441 kts | 342° |
| 2026-04-29 17:31 | 37.63599 | 9.98532 | 25260 ft | 444 kts | 341° |
| 2026-04-29 17:31 | 37.66604 | 9.97583 | 25661 ft | 447 kts | 341° |
| 2026-04-29 17:31 | 37.69630 | 9.96626 | 26032 ft | 450 kts | 341° |
| 2026-04-29 17:32 | 37.72673 | 9.95663 | 26410 ft | 453 kts | 341° |
| 2026-04-29 17:32 | 37.75740 | 9.94691 | 26776 ft | 456 kts | 341° |
| 2026-04-29 17:32 | 37.78818 | 9.93711 | 27154 ft | 458 kts | 341° |
| 2026-04-29 17:32 | 37.80869 | 9.93056 | 27399 ft | 459 kts | 341° |
| 2026-04-29 17:33 | 37.83979 | 9.92061 | 27772 ft | 462 kts | 341° |
| 2026-04-29 17:33 | 37.88112 | 9.90736 | 28224 ft | 465 kts | 341° |
| 2026-04-29 17:33 | 37.91258 | 9.89727 | 28561 ft | 467 kts | 341° |
| 2026-04-29 17:33 | 37.94411 | 9.88716 | 28967 ft | 468 kts | 340° |
| 2026-04-29 17:34 | 37.97558 | 9.87708 | 29500 ft | 466 kts | 340° |
| 2026-04-29 17:34 | 37.99677 | 9.87029 | 29872 ft | 464 kts | 340° |
| 2026-04-29 17:34 | 38.02759 | 9.86040 | 30310 ft | 463 kts | 340° |
| 2026-04-29 17:34 | 38.05878 | 9.85036 | 30679 ft | 463 kts | 340° |
| 2026-04-29 17:35 | 38.11075 | 9.83361 | 31272 ft | 463 kts | 339° |
| 2026-04-29 17:35 | 38.15254 | 9.82012 | 31705 ft | 465 kts | 339° |
| 2026-04-29 17:35 | 38.18394 | 9.80997 | 31969 ft | 466 kts | 339° |
| 2026-04-29 17:36 | 38.21555 | 9.79975 | 31948 ft | 469 kts | 339° |
| 2026-04-29 17:36 | 38.27869 | 9.77938 | 31963 ft | 465 kts | 340° |
| 2026-04-29 17:37 | 38.34120 | 9.75934 | 31967 ft | 463 kts | 340° |
| 2026-04-29 17:37 | 38.40323 | 9.73940 | 31971 ft | 463 kts | 340° |
| 2026-04-29 17:38 | 38.46579 | 9.71924 | 31974 ft | 464 kts | 340° |
| 2026-04-29 17:38 | 38.52841 | 9.69904 | 31982 ft | 464 kts | 340° |
| 2026-04-29 17:39 | 38.59106 | 9.67875 | 31969 ft | 465 kts | 341° |
| 2026-04-29 17:39 | 38.65338 | 9.65857 | 31978 ft | 465 kts | 341° |
| 2026-04-29 17:40 | 38.71610 | 9.63821 | 31981 ft | 465 kts | 341° |
| 2026-04-29 17:40 | 38.77888 | 9.61780 | 31986 ft | 466 kts | 341° |
| 2026-04-29 17:41 | 38.84168 | 9.59736 | 31991 ft | 466 kts | 341° |
| 2026-04-29 17:41 | 38.90447 | 9.57688 | 31992 ft | 466 kts | 341° |
| 2026-04-29 17:42 | 38.96758 | 9.55749 | 32007 ft | 466 kts | 342° |
| 2026-04-29 17:42 | 39.03041 | 9.53890 | 32001 ft | 466 kts | 343° |
| 2026-04-29 17:43 | 39.09354 | 9.52011 | 31994 ft | 466 kts | 343° |
| 2026-04-29 17:43 | 39.15661 | 9.50115 | 32002 ft | 465 kts | 343° |
| 2026-04-29 17:44 | 39.21959 | 9.48210 | 32000 ft | 464 kts | 343° |
| 2026-04-29 17:44 | 39.28241 | 9.46307 | 31995 ft | 464 kts | 343° |
| 2026-04-29 17:45 | 39.34477 | 9.44414 | 32010 ft | 463 kts | 343° |
| 2026-04-29 17:45 | 39.40745 | 9.42508 | 32026 ft | 463 kts | 343° |
| 2026-04-29 17:46 | 39.47018 | 9.40598 | 32037 ft | 464 kts | 343° |
| 2026-04-29 17:46 | 39.53304 | 9.38680 | 32034 ft | 464 kts | 343° |
| 2026-04-29 17:47 | 39.59599 | 9.36757 | 32006 ft | 465 kts | 343° |
| 2026-04-29 17:47 | 39.65895 | 9.34829 | 32023 ft | 465 kts | 343° |
| 2026-04-29 17:48 | 39.72202 | 9.32893 | 32008 ft | 466 kts | 343° |
| 2026-04-29 17:48 | 39.78524 | 9.30950 | 32003 ft | 467 kts | 343° |
| 2026-04-29 17:49 | 39.84801 | 9.29018 | 32013 ft | 467 kts | 343° |
| 2026-04-29 17:49 | 39.91130 | 9.27065 | 32004 ft | 468 kts | 344° |
| 2026-04-29 17:50 | 39.97461 | 9.25108 | 32015 ft | 468 kts | 344° |
| 2026-04-29 17:50 | 40.03793 | 9.23147 | 32006 ft | 468 kts | 344° |
| 2026-04-29 17:51 | 40.10133 | 9.21179 | 31987 ft | 468 kts | 344° |
| 2026-04-29 17:51 | 40.16422 | 9.19223 | 31998 ft | 467 kts | 344° |
| 2026-04-29 17:52 | 40.22749 | 9.17250 | 31999 ft | 468 kts | 344° |
| 2026-04-29 17:52 | 40.29077 | 9.15265 | 31996 ft | 468 kts | 344° |
| 2026-04-29 17:53 | 40.35400 | 9.13228 | 31992 ft | 468 kts | 344° |
| 2026-04-29 17:53 | 40.41728 | 9.11179 | 31988 ft | 468 kts | 344° |
| 2026-04-29 17:54 | 40.48049 | 9.09133 | 31989 ft | 468 kts | 344° |
| 2026-04-29 17:54 | 40.54378 | 9.07084 | 31986 ft | 468 kts | 344° |
| 2026-04-29 17:55 | 40.60710 | 9.05032 | 31984 ft | 469 kts | 344° |
| 2026-04-29 17:55 | 40.67006 | 9.02976 | 31972 ft | 469 kts | 344° |
| 2026-04-29 17:56 | 40.73349 | 9.00915 | 31983 ft | 470 kts | 344° |
| 2026-04-29 17:56 | 40.79697 | 8.98848 | 31982 ft | 470 kts | 345° |
| 2026-04-29 17:57 | 40.86041 | 8.96777 | 31976 ft | 470 kts | 345° |
| 2026-04-29 17:57 | 40.92388 | 8.94700 | 31969 ft | 470 kts | 345° |
| 2026-04-29 17:58 | 40.98691 | 8.92631 | 31975 ft | 470 kts | 345° |
| 2026-04-29 17:58 | 41.05031 | 8.90546 | 31974 ft | 469 kts | 345° |
| 2026-04-29 17:59 | 41.11369 | 8.88459 | 31978 ft | 469 kts | 345° |
| 2026-04-29 17:59 | 41.17699 | 8.86369 | 31970 ft | 469 kts | 345° |
| 2026-04-29 18:00 | 41.23981 | 8.84291 | 31987 ft | 468 kts | 344° |
| 2026-04-29 18:00 | 41.30299 | 8.82196 | 31973 ft | 468 kts | 344° |
| 2026-04-29 18:01 | 41.36707 | 8.80691 | 31998 ft | 469 kts | 354° |
| 2026-04-29 18:01 | 41.43236 | 8.80238 | 31992 ft | 470 kts | 356° |
| 2026-04-29 18:02 | 41.49709 | 8.79802 | 31600 ft | 458 kts | 355° |
| 2026-04-29 18:02 | 41.52854 | 8.79558 | 31145 ft | 449 kts | 355° |
| 2026-04-29 18:02 | 41.55957 | 8.79302 | 30635 ft | 444 kts | 355° |
| 2026-04-29 18:02 | 41.59023 | 8.79042 | 30130 ft | 440 kts | 355° |
| 2026-04-29 18:03 | 41.62023 | 8.78784 | 29552 ft | 435 kts | 355° |
| 2026-04-29 18:03 | 41.65032 | 8.78527 | 28967 ft | 431 kts | 355° |
| 2026-04-29 18:03 | 41.67998 | 8.78274 | 28450 ft | 425 kts | 355° |
| 2026-04-29 18:03 | 41.70936 | 8.78023 | 27894 ft | 420 kts | 355° |
| 2026-04-29 18:04 | 41.73838 | 8.77777 | 27378 ft | 416 kts | 355° |
| 2026-04-29 18:04 | 41.76713 | 8.77542 | 26850 ft | 412 kts | 356° |
| 2026-04-29 18:04 | 41.79572 | 8.77600 | 26323 ft | 410 kts | 2° |
| 2026-04-29 18:04 | 41.82403 | 8.77900 | 25802 ft | 407 kts | 4° |
| 2026-04-29 18:05 | 41.85214 | 8.78259 | 25290 ft | 404 kts | 4° |
| 2026-04-29 18:05 | 41.88006 | 8.78621 | 24795 ft | 401 kts | 4° |
| 2026-04-29 18:05 | 41.90775 | 8.78966 | 24283 ft | 399 kts | 3° |
| 2026-04-29 18:05 | 41.93536 | 8.79293 | 23782 ft | 397 kts | 3° |
| 2026-04-29 18:06 | 41.96239 | 8.79601 | 23227 ft | 395 kts | 3° |
| 2026-04-29 18:06 | 41.98969 | 8.79907 | 22681 ft | 392 kts | 3° |
| 2026-04-29 18:06 | 42.01671 | 8.80204 | 22200 ft | 388 kts | 3° |
| 2026-04-29 18:06 | 42.04354 | 8.80500 | 21685 ft | 385 kts | 3° |
| 2026-04-29 18:07 | 42.07012 | 8.80794 | 21202 ft | 381 kts | 3° |
| 2026-04-29 18:07 | 42.09645 | 8.81085 | 20716 ft | 379 kts | 3° |
| 2026-04-29 18:07 | 42.12262 | 8.81375 | 20232 ft | 376 kts | 3° |
| 2026-04-29 18:07 | 42.14858 | 8.81663 | 19752 ft | 373 kts | 3° |
| 2026-04-29 18:08 | 42.17438 | 8.81949 | 19279 ft | 371 kts | 4° |
| 2026-04-29 18:08 | 42.19969 | 8.82229 | 18804 ft | 369 kts | 4° |
| 2026-04-29 18:08 | 42.22525 | 8.82513 | 18310 ft | 368 kts | 4° |
| 2026-04-29 18:08 | 42.25067 | 8.82793 | 17778 ft | 366 kts | 3° |
| 2026-04-29 18:09 | 42.27605 | 8.82920 | 17239 ft | 364 kts | 359° |
| 2026-04-29 18:09 | 42.30125 | 8.82907 | 16751 ft | 361 kts | 358° |
| 2026-04-29 18:09 | 42.32628 | 8.82866 | 16260 ft | 358 kts | 358° |
| 2026-04-29 18:09 | 42.35112 | 8.82834 | 15784 ft | 356 kts | 358° |
| 2026-04-29 18:10 | 42.37580 | 8.82822 | 15305 ft | 354 kts | 358° |
| 2026-04-29 18:10 | 42.40033 | 8.82822 | 14821 ft | 351 kts | 358° |
| 2026-04-29 18:10 | 42.42438 | 8.82827 | 14367 ft | 348 kts | 358° |
| 2026-04-29 18:10 | 42.44855 | 8.82844 | 13884 ft | 347 kts | 1° |
| 2026-04-29 18:11 | 42.47204 | 8.83547 | 13482 ft | 347 kts | 21° |
| 2026-04-29 18:11 | 42.49393 | 8.84871 | 13038 ft | 343 kts | 22° |
| 2026-04-29 18:11 | 42.51559 | 8.86197 | 12587 ft | 340 kts | 22° |
| 2026-04-29 18:11 | 42.53708 | 8.87486 | 12134 ft | 334 kts | 22° |
| 2026-04-29 18:12 | 42.55782 | 8.88717 | 11959 ft | 314 kts | 21° |
| 2026-04-29 18:12 | 42.57733 | 8.89869 | 11703 ft | 300 kts | 21° |
| 2026-04-29 18:12 | 42.59630 | 8.90987 | 11176 ft | 297 kts | 21° |
| 2026-04-29 18:12 | 42.61524 | 8.92104 | 10607 ft | 296 kts | 21° |
| 2026-04-29 18:13 | 42.63411 | 8.93218 | 10078 ft | 294 kts | 21° |
| 2026-04-29 18:13 | 42.65280 | 8.94323 | 9530 ft | 292 kts | 22° |
| 2026-04-29 18:13 | 42.67136 | 8.95420 | 8979 ft | 290 kts | 22° |
| 2026-04-29 18:13 | 42.68980 | 8.96510 | 8418 ft | 288 kts | 21° |
| 2026-04-29 18:14 | 42.70902 | 8.97089 | 7826 ft | 283 kts | 353° |
| 2026-04-29 18:14 | 42.72709 | 8.96195 | 7282 ft | 277 kts | 321° |
| 2026-04-29 18:14 | 42.74177 | 8.94538 | 6782 ft | 273 kts | 319° |
| 2026-04-29 18:14 | 42.75848 | 8.93400 | 6239 ft | 276 kts | 345° |
| 2026-04-29 18:15 | 42.77690 | 8.92772 | 5746 ft | 271 kts | 335° |
| 2026-04-29 18:15 | 42.79117 | 8.91217 | 5306 ft | 261 kts | 302° |
| 2026-04-29 18:15 | 42.79716 | 8.88978 | 5083 ft | 246 kts | 276° |
| 2026-04-29 18:15 | 42.79651 | 8.86723 | 4903 ft | 232 kts | 256° |
| 2026-04-29 18:16 | 42.79176 | 8.84684 | 4807 ft | 222 kts | 250° |
| 2026-04-29 18:16 | 42.78642 | 8.82735 | 4605 ft | 219 kts | 249° |
| 2026-04-29 18:16 | 42.78046 | 8.80846 | 4393 ft | 215 kts | 236° |
| 2026-04-29 18:16 | 42.76935 | 8.79578 | 4179 ft | 208 kts | 204° |
| 2026-04-29 18:17 | 42.75563 | 8.79180 | 3950 ft | 204 kts | 182° |
| 2026-04-29 18:17 | 42.74166 | 8.79193 | 3742 ft | 199 kts | 181° |
| 2026-04-29 18:17 | 42.72796 | 8.79204 | 3525 ft | 195 kts | 181° |
| 2026-04-29 18:17 | 42.71454 | 8.79214 | 3321 ft | 191 kts | 181° |
| 2026-04-29 18:18 | 42.70146 | 8.79221 | 3138 ft | 185 kts | 181° |
| 2026-04-29 18:18 | 42.68873 | 8.79229 | 2908 ft | 181 kts | 181° |
| 2026-04-29 18:18 | 42.67623 | 8.79236 | 2671 ft | 178 kts | 180° |
| 2026-04-29 18:18 | 42.66420 | 8.79242 | 2453 ft | 167 kts | 180° |
| 2026-04-29 18:19 | 42.65278 | 8.79247 | 2237 ft | 163 kts | 180° |
| 2026-04-29 18:19 | 42.64150 | 8.79252 | 2027 ft | 161 kts | 180° |
| 2026-04-29 18:19 | 42.63074 | 8.79257 | 1851 ft | 152 kts | 180° |
| 2026-04-29 18:19 | 42.62030 | 8.79264 | 1620 ft | 151 kts | 179° |
| 2026-04-29 18:20 | 42.60988 | 8.79279 | 1374 ft | 148 kts | 179° |
| 2026-04-29 18:20 | 42.59963 | 8.79283 | 1127 ft | 146 kts | 180° |
| 2026-04-29 18:20 | 42.58959 | 8.79287 | 933 ft | 143 kts | 180° |
| 2026-04-29 18:20 | 42.57967 | 8.79290 | 742 ft | 142 kts | 180° |
| 2026-04-29 18:21 | 42.56982 | 8.79293 | 577 ft | 141 kts | 180° |
| 2026-04-29 18:21 | 42.55997 | 8.79294 | 422 ft | 142 kts | 180° |
| 2026-04-29 18:21 | 42.55002 | 8.79294 | 275 ft | 144 kts | 180° |
| 2026-04-29 18:21 | 42.53999 | 8.79294 | 115 ft | 145 kts | 180° |
| 2026-04-29 18:22 | 42.53103 | 8.79295 | 142 ft | 100 kts | 179° |
| 2026-04-29 18:22 | 42.52661 | 8.79297 | 177 ft | 31 kts | 180° |
| 2026-04-29 18:22 | 42.52549 | 8.79298 | 186 ft | 12 kts | 179° |
| 2026-04-29 18:22 | 42.52470 | 8.79299 | 203 ft | 9 kts | 181° |
| 2026-04-29 18:23 | 42.52435 | 8.79261 | 197 ft | 6 kts | 253° |
| 2026-04-29 18:23 | 42.52434 | 8.79209 | 191 ft | 6 kts | 271° |
| 2026-04-29 18:23 | 42.52433 | 8.79158 | 191 ft | 5 kts | 270° |
| 2026-04-29 18:23 | 42.52421 | 8.79113 | 198 ft | 5 kts | 234° |
| 2026-04-29 18:24 | 42.52397 | 8.79076 | 200 ft | 5 kts | 227° |
| 2026-04-29 18:24 | 42.52391 | 8.79066 | 202 ft | 0 kts | 229° |